createdAt,value
2023-01-15T00:01:30.234Z,6.79
2023-01-15T00:03:59.305Z,6.84
2023-01-15T00:06:27.999Z,6.83
2023-01-15T00:08:55.590Z,6.81
2023-01-15T00:11:23.523Z,6.78
2023-01-15T00:13:51.390Z,6.78
2023-01-15T00:16:24.101Z,6.79
2023-01-15T00:18:55.818Z,6.82
2023-01-15T00:21:23.432Z,6.81
2023-01-15T00:24:09.539Z,6.82
2023-01-15T00:26:55.731Z,6.89
2023-01-15T00:29:23.728Z,6.93
2023-01-15T00:32:00.183Z,6.84
2023-01-15T00:34:27.397Z,6.87
2023-01-15T00:36:54.546Z,6.83
2023-01-15T00:39:21.725Z,6.82
2023-01-15T00:41:48.459Z,6.87
2023-01-15T00:44:15.343Z,6.73
2023-01-15T00:46:42.301Z,6.79
2023-01-15T00:49:09.483Z,6.75
2023-01-15T00:51:36.180Z,6.75
2023-01-15T00:54:03.579Z,6.71
2023-01-15T00:56:30.510Z,6.81
2023-01-15T00:58:57.332Z,6.68
2023-01-15T01:01:25.972Z,6.70
2023-01-15T01:03:53.088Z,6.67
2023-01-15T01:06:21.190Z,6.66
2023-01-15T01:08:48.819Z,6.75
2023-01-15T01:11:18.088Z,6.68
2023-01-15T01:13:46.090Z,6.71
2023-01-15T01:16:32.088Z,6.69
2023-01-15T01:19:01.846Z,6.69
2023-01-15T01:21:28.632Z,6.72
2023-01-15T01:23:57.832Z,6.76
2023-01-15T01:26:24.818Z,6.74
2023-01-15T01:28:53.228Z,6.69
2023-01-15T01:31:20.952Z,6.71
2023-01-15T01:33:56.695Z,6.66
2023-01-15T01:36:29.940Z,6.59
2023-01-15T01:38:57.385Z,6.61
2023-01-15T01:41:24.789Z,6.58
2023-01-15T01:44:30.427Z,6.56
2023-01-15T01:46:57.252Z,6.58
2023-01-15T01:49:25.579Z,6.65
2023-01-15T01:51:58.919Z,6.65
2023-01-15T01:54:28.613Z,6.71
2023-01-15T01:56:55.425Z,6.71
2023-01-15T01:59:24.189Z,6.73
2023-01-15T02:01:52.089Z,6.78
2023-01-15T02:04:22.424Z,6.78
2023-01-15T02:06:49.747Z,6.75
2023-01-15T02:09:16.352Z,6.94
2023-01-15T02:11:43.133Z,6.78
2023-01-15T02:14:15.546Z,6.78
2023-01-15T02:16:52.076Z,6.78
2023-01-15T02:19:36.904Z,6.75
2023-01-15T02:22:08.125Z,6.73
2023-01-15T02:24:46.782Z,6.73
2023-01-15T02:27:20.761Z,6.74
2023-01-15T02:30:10.364Z,6.71
2023-01-15T02:33:00.584Z,6.72
2023-01-15T02:35:29.588Z,6.75
2023-01-15T02:38:01.053Z,6.78
2023-01-15T02:40:29.350Z,6.77
2023-01-15T02:42:58.692Z,6.78
2023-01-15T02:45:39.358Z,6.92
2023-01-15T02:48:12.344Z,6.82
2023-01-15T02:51:23.596Z,6.81
2023-01-15T02:53:53.791Z,6.79
2023-01-15T02:56:26.660Z,6.85
2023-01-15T02:58:58.092Z,6.82
2023-01-15T03:01:46.175Z,6.87
2023-01-15T03:04:23.962Z,6.79
2023-01-15T03:07:15.993Z,6.85
2023-01-15T03:09:42.951Z,6.78
2023-01-15T03:12:28.260Z,6.77
2023-01-15T03:15:10.937Z,6.71
2023-01-15T03:17:50.025Z,6.75
2023-01-15T03:20:23.585Z,6.76
2023-01-15T03:22:54.427Z,6.72
2023-01-15T03:25:25.981Z,6.74
2023-01-15T03:27:56.381Z,6.67
2023-01-15T03:30:23.506Z,6.67
2023-01-15T03:32:50.271Z,6.70
2023-01-15T03:35:56.151Z,6.73
2023-01-15T03:38:29.746Z,6.68
2023-01-15T03:41:15.330Z,6.71
2023-01-15T03:44:13.831Z,6.72
2023-01-15T03:47:01.921Z,6.72
2023-01-15T03:49:40.164Z,6.70
2023-01-15T03:52:16.549Z,6.65
2023-01-15T03:55:10.082Z,6.68
2023-01-15T03:57:59.063Z,6.62
2023-01-15T04:00:28.380Z,6.65
2023-01-15T04:02:57.397Z,6.66
2023-01-15T04:05:26.661Z,6.63
2023-01-15T04:07:55.721Z,6.65
2023-01-15T04:10:22.833Z,6.63
2023-01-15T04:12:49.635Z,6.62
2023-01-15T04:15:17.203Z,6.61
2023-01-15T04:17:43.822Z,6.60
2023-01-15T04:20:11.701Z,6.47
2023-01-15T04:22:38.682Z,6.56
2023-01-15T04:25:06.619Z,6.56
2023-01-15T04:27:33.476Z,6.61
2023-01-15T04:30:00.398Z,6.56
2023-01-15T04:32:27.567Z,6.54
2023-01-15T04:34:54.251Z,6.63
2023-01-15T04:37:20.928Z,6.48
2023-01-15T04:39:47.686Z,6.42
2023-01-15T04:42:33.495Z,6.51
2023-01-15T04:45:00.280Z,6.59
2023-01-15T04:47:30.216Z,6.57
2023-01-15T04:49:56.953Z,6.53
2023-01-15T04:52:23.600Z,6.53
2023-01-15T04:54:50.262Z,6.55
2023-01-15T04:57:17.062Z,6.46
2023-01-15T04:59:43.772Z,6.41
2023-01-15T05:02:10.950Z,6.42
2023-01-15T05:04:37.812Z,6.44
2023-01-15T05:07:08.651Z,6.46
2023-01-15T05:09:35.606Z,6.50
2023-01-15T05:12:02.423Z,6.49
2023-01-15T05:14:29.247Z,6.45
2023-01-15T05:16:55.939Z,6.41
2023-01-15T05:19:22.621Z,6.51
2023-01-15T05:21:49.372Z,6.55
2023-01-15T05:24:17.514Z,6.44
2023-01-15T05:26:44.801Z,6.43
2023-01-15T05:29:11.930Z,6.50
2023-01-15T05:31:39.492Z,6.49
2023-01-15T05:34:06.212Z,6.44
2023-01-15T05:36:33.674Z,6.47
2023-01-15T05:39:02.093Z,6.36
2023-01-15T05:41:48.715Z,6.40
2023-01-15T05:44:27.231Z,6.38
2023-01-15T05:46:57.419Z,6.39
2023-01-15T05:49:26.287Z,6.31
2023-01-15T05:51:54.343Z,6.33
2023-01-15T05:54:23.551Z,6.28
2023-01-15T05:56:50.586Z,6.40
2023-01-15T05:59:19.245Z,6.47
2023-01-15T06:01:46.389Z,6.51
2023-01-15T06:04:14.351Z,6.57
2023-01-15T06:06:42.788Z,6.63
2023-01-15T06:09:10.020Z,6.49
2023-01-15T06:11:36.700Z,6.43
2023-01-15T06:14:03.467Z,6.43
2023-01-15T06:16:30.220Z,6.44
2023-01-15T06:19:01.150Z,6.53
2023-01-15T06:21:27.839Z,6.54
2023-01-15T06:23:54.546Z,6.53
2023-01-15T06:26:21.355Z,6.56
2023-01-15T06:28:48.839Z,6.53
2023-01-15T06:31:18.305Z,6.51
2023-01-15T06:33:46.093Z,6.49
2023-01-15T06:36:18.889Z,6.58
2023-01-15T06:38:45.604Z,6.46
2023-01-15T06:41:33.777Z,6.60
2023-01-15T06:44:18.852Z,6.57
2023-01-15T06:47:06.147Z,6.50
2023-01-15T06:49:34.181Z,6.64
2023-01-15T06:52:01.416Z,6.54
2023-01-15T06:54:29.073Z,6.55
2023-01-15T06:56:55.789Z,6.56
2023-01-15T06:59:22.516Z,6.54
2023-01-15T07:01:49.460Z,6.49
2023-01-15T07:04:16.608Z,6.54
2023-01-15T07:06:43.625Z,6.55
2023-01-15T07:09:10.435Z,6.46
2023-01-15T07:11:49.415Z,6.47
2023-01-15T07:14:24.933Z,6.42
2023-01-15T07:16:51.878Z,6.49
2023-01-15T07:19:19.228Z,6.48
2023-01-15T07:21:46.503Z,6.55
2023-01-15T07:24:13.993Z,6.55
2023-01-15T07:26:42.041Z,6.53
2023-01-15T07:29:08.785Z,6.56
2023-01-15T07:31:35.582Z,6.55
2023-01-15T07:34:02.277Z,6.53
2023-01-15T07:36:28.959Z,6.55
2023-01-15T07:38:55.697Z,6.54
2023-01-15T07:41:40.963Z,6.52
2023-01-15T07:44:29.248Z,6.49
2023-01-15T07:47:14.554Z,6.50
2023-01-15T07:49:46.072Z,6.39
2023-01-15T07:52:19.057Z,6.44
2023-01-15T07:54:47.410Z,6.54
2023-01-15T07:57:18.030Z,6.47
2023-01-15T07:59:44.682Z,6.42
2023-01-15T08:02:12.080Z,6.41
2023-01-15T08:04:38.867Z,6.38
2023-01-15T08:07:06.177Z,6.51
2023-01-15T08:09:33.112Z,6.54
2023-01-15T08:12:19.523Z,6.47
2023-01-15T08:15:05.127Z,6.49
2023-01-15T08:17:35.877Z,6.49
2023-01-15T08:20:11.109Z,6.52
2023-01-15T08:22:38.749Z,6.46
2023-01-15T08:25:06.422Z,6.57
2023-01-15T08:27:33.579Z,6.54
2023-01-15T08:30:00.338Z,6.60
2023-01-15T08:32:27.087Z,6.57
2023-01-15T08:34:53.740Z,6.59
2023-01-15T08:37:20.401Z,6.67
2023-01-15T08:39:47.110Z,6.62
2023-01-15T08:42:14.946Z,6.70
2023-01-15T08:44:41.600Z,6.70
2023-01-15T08:47:08.297Z,6.80
2023-01-15T08:49:34.999Z,6.82
2023-01-15T08:52:01.666Z,6.85
2023-01-15T08:54:28.264Z,6.78
2023-01-15T08:56:54.912Z,6.82
2023-01-15T08:59:21.912Z,6.78
2023-01-15T09:01:54.521Z,6.76
2023-01-15T09:04:22.156Z,6.78
2023-01-15T09:06:49.750Z,6.69
2023-01-15T09:09:16.477Z,6.72
2023-01-15T09:11:45.430Z,6.76
2023-01-15T09:14:56.764Z,6.83
2023-01-15T09:17:01.728Z,6.74
2023-01-15T09:19:28.535Z,6.71
2023-01-15T09:21:55.303Z,6.76
2023-01-15T09:24:21.968Z,6.71
2023-01-15T09:26:48.858Z,6.73
2023-01-15T09:29:15.543Z,6.74
2023-01-15T09:31:42.162Z,6.82
2023-01-15T09:34:08.805Z,6.70
2023-01-15T09:36:36.294Z,6.74
2023-01-15T09:39:04.259Z,6.73
2023-01-15T09:42:06.847Z,6.71
2023-01-15T09:45:15.127Z,6.85
2023-01-15T09:48:06.486Z,6.73
2023-01-15T09:50:51.810Z,6.70
2023-01-15T09:53:24.431Z,6.68
2023-01-15T09:55:53.013Z,6.71
2023-01-15T09:58:22.872Z,6.76
2023-01-15T10:00:52.000Z,6.79
2023-01-15T10:03:35.860Z,6.83
2023-01-15T10:06:26.245Z,6.75
2023-01-15T10:09:11.625Z,6.85
2023-01-15T10:11:59.561Z,6.88
2023-01-15T10:14:39.367Z,6.81
2023-01-15T10:17:24.785Z,6.91
2023-01-15T10:19:52.187Z,6.81
2023-01-15T10:22:36.782Z,6.78
2023-01-15T10:25:14.840Z,6.82
2023-01-15T10:27:46.497Z,6.96
2023-01-15T10:30:21.763Z,6.91
2023-01-15T10:33:02.060Z,6.95
2023-01-15T10:35:58.608Z,6.92
2023-01-15T10:39:00.657Z,7.02
2023-01-15T10:41:32.003Z,6.96
2023-01-15T10:44:05.763Z,6.91
2023-01-15T10:46:38.553Z,6.99
2023-01-15T10:49:13.613Z,6.95
2023-01-15T10:51:45.496Z,6.92
2023-01-15T10:54:23.937Z,6.92
2023-01-15T10:57:11.482Z,6.93
2023-01-15T10:59:50.428Z,6.87
2023-01-15T11:03:11.772Z,6.94
2023-01-15T11:05:38.887Z,6.86
2023-01-15T11:08:54.902Z,6.90
2023-01-15T11:11:16.417Z,6.84
2023-01-15T11:14:11.446Z,6.81
2023-01-15T11:16:58.937Z,6.97
2023-01-15T11:19:37.046Z,6.94
2023-01-15T11:22:14.736Z,6.90
2023-01-15T11:24:54.020Z,6.78
2023-01-15T11:27:28.727Z,6.53
2023-01-15T11:29:57.815Z,6.46
2023-01-15T11:32:35.424Z,6.52
2023-01-15T11:35:22.367Z,6.73
2023-01-15T11:37:49.653Z,6.76
2023-01-15T11:40:24.797Z,6.88
2023-01-15T11:43:10.784Z,6.98
2023-01-15T11:46:07.971Z,6.99
2023-01-15T11:49:04.857Z,6.87
2023-01-15T11:51:47.503Z,6.90
2023-01-15T11:54:15.721Z,7.06
2023-01-15T11:56:44.464Z,7.14
2023-01-15T11:59:14.935Z,6.94
2023-01-15T12:02:40.985Z,6.84
2023-01-15T12:05:17.536Z,6.74
2023-01-15T12:07:45.123Z,6.80
2023-01-15T12:10:41.754Z,6.82
2023-01-15T12:13:53.607Z,6.67
2023-01-15T12:17:17.653Z,6.49
2023-01-15T12:20:10.090Z,6.49
2023-01-15T12:22:55.137Z,6.54
2023-01-15T12:25:38.709Z,6.59
2023-01-15T12:28:18.259Z,6.66
2023-01-15T12:31:15.222Z,6.64
2023-01-15T12:33:58.127Z,6.64
2023-01-15T12:36:31.811Z,6.61
2023-01-15T12:39:05.235Z,6.64
2023-01-15T12:41:54.006Z,6.70
2023-01-15T12:45:03.928Z,6.78
2023-01-15T12:47:46.025Z,6.74
2023-01-15T12:50:27.816Z,6.72
2023-01-15T12:53:24.000Z,6.76
2023-01-15T12:56:11.838Z,6.78
2023-01-15T12:58:56.815Z,6.78
2023-01-15T13:01:49.133Z,6.78
2023-01-15T13:04:27.626Z,6.84
2023-01-15T13:07:01.954Z,6.93
2023-01-15T13:09:42.591Z,6.85
2023-01-15T13:12:14.404Z,6.94
2023-01-15T13:14:43.727Z,6.84
2023-01-15T13:17:29.670Z,6.77
2023-01-15T13:20:27.848Z,6.74
2023-01-15T13:23:18.725Z,6.75
2023-01-15T13:26:20.624Z,6.74
2023-01-15T13:29:12.503Z,6.73
2023-01-15T13:32:00.509Z,6.71
2023-01-15T13:34:44.782Z,6.64
2023-01-15T13:37:24.863Z,6.55
2023-01-15T13:39:56.944Z,6.38
2023-01-15T13:42:33.231Z,6.27
2023-01-15T13:45:20.456Z,6.17
2023-01-15T13:47:50.769Z,6.03
2023-01-15T13:50:32.907Z,6.00
2023-01-15T13:53:03.981Z,6.01
2023-01-15T13:55:40.936Z,6.02
2023-01-15T13:58:24.865Z,5.87
2023-01-15T14:01:22.496Z,5.85
2023-01-15T14:04:01.634Z,5.71
2023-01-15T14:06:37.868Z,5.63
2023-01-15T14:09:05.346Z,5.64
2023-01-15T14:11:42.621Z,5.50
2023-01-15T14:14:37.203Z,5.48
2023-01-15T14:17:24.824Z,5.43
2023-01-15T14:20:06.754Z,5.40
2023-01-15T14:22:57.877Z,5.39
2023-01-15T14:25:31.544Z,5.40
2023-01-15T14:28:22.380Z,5.36
2023-01-15T14:30:48.994Z,5.38
2023-01-15T14:33:57.709Z,5.38
2023-01-15T14:36:29.596Z,5.38
2023-01-15T14:39:00.350Z,5.36
2023-01-15T14:42:00.134Z,5.42
2023-01-15T14:44:31.812Z,5.40
2023-01-15T14:47:01.662Z,5.41
2023-01-15T14:49:30.590Z,5.43
2023-01-15T14:51:58.454Z,5.47
2023-01-15T14:54:25.888Z,5.50
2023-01-15T14:56:57.966Z,5.54
2023-01-15T14:59:52.861Z,5.60
2023-01-15T15:02:25.372Z,5.58
2023-01-15T15:04:56.392Z,5.52
2023-01-15T15:07:24.685Z,5.53
2023-01-15T15:10:18.037Z,5.58
2023-01-15T15:13:19.426Z,5.55
2023-01-15T15:15:55.399Z,5.55
2023-01-15T15:18:33.027Z,5.56
2023-01-15T15:21:12.540Z,5.58
2023-01-15T15:24:00.859Z,5.59
2023-01-15T15:26:35.789Z,5.55
2023-01-15T15:29:07.388Z,5.58
2023-01-15T15:32:00.406Z,5.55
2023-01-15T15:34:32.087Z,5.53
2023-01-15T15:37:02.212Z,5.52
2023-01-15T15:39:39.501Z,5.51
2023-01-15T15:42:32.390Z,5.47
2023-01-15T15:45:18.617Z,5.42
2023-01-15T15:48:03.669Z,5.36
2023-01-15T15:50:33.790Z,5.29
2023-01-15T15:53:04.542Z,5.32
2023-01-15T15:55:40.446Z,5.31
2023-01-15T15:58:14.343Z,5.31
2023-01-15T16:00:43.320Z,5.37
2023-01-15T16:03:23.032Z,5.38
2023-01-15T16:06:02.606Z,5.46
2023-01-15T16:08:31.415Z,5.44
2023-01-15T16:11:01.473Z,5.52
2023-01-15T16:13:36.499Z,5.51
2023-01-15T16:16:05.553Z,5.54
2023-01-15T16:18:44.371Z,5.58
2023-01-15T16:21:20.175Z,5.62
2023-01-15T16:24:00.221Z,5.65
2023-01-15T16:26:40.970Z,5.69
2023-01-15T16:29:18.194Z,5.67
2023-01-15T16:31:45.284Z,5.63
2023-01-15T16:34:19.184Z,5.63
2023-01-15T16:36:47.175Z,5.55
2023-01-15T16:39:32.218Z,5.55
2023-01-15T16:42:02.010Z,5.46
2023-01-15T16:44:44.176Z,5.55
2023-01-15T16:47:26.101Z,5.51
2023-01-15T16:49:53.377Z,5.54
2023-01-15T16:52:41.994Z,5.59
2023-01-15T16:55:34.170Z,5.52
2023-01-15T16:58:12.970Z,5.49
2023-01-15T17:00:46.667Z,5.47
2023-01-15T17:03:21.011Z,5.48
2023-01-15T17:05:54.346Z,5.53
2023-01-15T17:08:32.615Z,5.58
2023-01-15T17:11:01.699Z,5.67
2023-01-15T17:13:32.418Z,5.73
2023-01-15T17:16:06.085Z,5.75
2023-01-15T17:18:33.548Z,5.86
2023-01-15T17:21:01.015Z,5.91
2023-01-15T17:23:30.266Z,6.00
2023-01-15T17:25:58.132Z,6.02
2023-01-15T17:28:25.833Z,6.01
2023-01-15T17:30:57.919Z,5.99
2023-01-15T17:33:25.073Z,5.99
2023-01-15T17:35:53.594Z,6.02
2023-01-15T17:38:20.723Z,6.07
2023-01-15T17:40:47.478Z,6.08
2023-01-15T17:43:15.865Z,6.07
2023-01-15T17:45:43.184Z,6.11
2023-01-15T17:48:10.304Z,6.08
2023-01-15T17:50:38.210Z,6.06
2023-01-15T17:53:05.577Z,5.96
2023-01-15T17:55:50.894Z,5.90
2023-01-15T17:58:36.102Z,5.89
2023-01-15T18:01:34.125Z,5.86
2023-01-15T18:04:19.985Z,5.90
2023-01-15T18:06:51.137Z,5.90
2023-01-15T18:09:18.898Z,5.88
2023-01-15T18:11:45.848Z,5.93
2023-01-15T18:14:12.949Z,5.89
2023-01-15T18:16:39.586Z,5.91
2023-01-15T18:19:06.601Z,5.99
2023-01-15T18:21:37.490Z,5.97
2023-01-15T18:24:04.424Z,5.90
2023-01-15T18:26:31.286Z,5.99
2023-01-15T18:28:58.024Z,6.02
2023-01-15T18:31:25.049Z,6.05
2023-01-15T18:33:52.373Z,5.99
2023-01-15T18:36:19.327Z,6.07
2023-01-15T18:38:47.433Z,6.02
2023-01-15T18:41:35.660Z,6.09
2023-01-15T18:44:32.571Z,6.09
2023-01-15T18:47:01.789Z,6.02
2023-01-15T18:49:30.238Z,5.88
2023-01-15T18:52:16.106Z,5.89
2023-01-15T18:54:42.891Z,5.95
2023-01-15T18:57:09.656Z,5.99
2023-01-15T18:59:36.639Z,6.01
2023-01-15T19:02:03.592Z,5.95
2023-01-15T19:04:30.392Z,5.96
2023-01-15T19:06:57.386Z,5.90
2023-01-15T19:09:24.512Z,5.86
2023-01-15T19:11:52.467Z,5.79
2023-01-15T19:14:43.295Z,5.76
2023-01-15T19:17:33.087Z,5.76
2023-01-15T19:20:00.064Z,5.73
2023-01-15T19:22:45.779Z,5.64
2023-01-15T19:25:12.978Z,5.63
2023-01-15T19:27:39.756Z,5.68
2023-01-15T19:30:08.148Z,5.71
2023-01-15T19:32:35.124Z,5.64
2023-01-15T19:35:01.905Z,5.64
2023-01-15T19:37:28.968Z,5.64
2023-01-15T19:39:55.749Z,5.68
2023-01-15T19:42:41.317Z,5.70
2023-01-15T19:45:28.571Z,5.70
2023-01-15T19:48:13.737Z,5.56
2023-01-15T19:50:42.406Z,5.51
2023-01-15T19:53:10.099Z,5.49
2023-01-15T19:55:39.111Z,5.49
2023-01-15T19:58:08.815Z,5.55
2023-01-15T20:00:37.405Z,5.45
2023-01-15T20:03:05.206Z,5.46
2023-01-15T20:05:33.477Z,5.57
2023-01-15T20:08:00.541Z,5.58
2023-01-15T20:10:29.062Z,5.63
2023-01-15T20:13:14.262Z,5.65
2023-01-15T20:15:43.933Z,5.54
2023-01-15T20:18:11.055Z,5.54
2023-01-15T20:20:38.789Z,5.59
2023-01-15T20:23:06.275Z,5.54
2023-01-15T20:25:33.178Z,5.55
2023-01-15T20:28:00.140Z,5.50
2023-01-15T20:30:27.574Z,5.58
2023-01-15T20:32:57.207Z,5.57
2023-01-15T20:35:27.876Z,5.61
2023-01-15T20:37:54.717Z,5.74
2023-01-15T20:40:23.556Z,5.73
2023-01-15T20:43:09.299Z,5.78
2023-01-15T20:45:36.168Z,5.79
2023-01-15T20:48:13.099Z,5.81
2023-01-15T20:51:02.665Z,5.82
2023-01-15T20:53:34.211Z,5.87
2023-01-15T20:56:11.008Z,5.83
2023-01-15T20:58:37.724Z,5.84
2023-01-15T21:01:06.571Z,5.86
2023-01-15T21:03:33.622Z,5.82
2023-01-15T21:06:02.618Z,5.76
2023-01-15T21:08:32.543Z,5.74
2023-01-15T21:10:59.740Z,5.70
2023-01-15T21:13:26.561Z,5.66
2023-01-15T21:16:04.875Z,5.67
2023-01-15T21:18:35.634Z,5.74
2023-01-15T21:21:09.113Z,5.76
2023-01-15T21:23:35.841Z,5.75
2023-01-15T21:26:02.540Z,5.77
2023-01-15T21:28:29.572Z,5.76
2023-01-15T21:30:56.860Z,5.74
2023-01-15T21:33:23.576Z,5.73
2023-01-15T21:35:50.326Z,5.62
2023-01-15T21:38:17.031Z,5.63
2023-01-15T21:40:43.694Z,5.62
2023-01-15T21:43:29.556Z,5.57
2023-01-15T21:46:05.902Z,5.48
2023-01-15T21:48:33.308Z,5.45
2023-01-15T21:51:04.336Z,5.43
2023-01-15T21:53:32.097Z,5.39
2023-01-15T21:55:58.867Z,5.35
2023-01-15T21:58:25.622Z,5.34
2023-01-15T22:00:52.368Z,5.35
2023-01-15T22:03:19.061Z,5.29
2023-01-15T22:05:45.720Z,5.17
2023-01-15T22:08:12.420Z,5.20
2023-01-15T22:10:39.526Z,5.20
2023-01-15T22:13:06.269Z,5.14
2023-01-15T22:15:32.989Z,5.16
2023-01-15T22:17:59.659Z,5.09
2023-01-15T22:20:26.304Z,5.15
2023-01-15T22:22:53.349Z,5.07
2023-01-15T22:25:20.135Z,5.06
2023-01-15T22:27:46.920Z,5.07
2023-01-15T22:30:15.751Z,5.13
2023-01-15T22:32:42.806Z,5.04
2023-01-15T22:35:09.762Z,5.07
2023-01-15T22:37:36.505Z,5.02
2023-01-15T22:40:04.605Z,5.06
2023-01-15T22:42:32.947Z,5.08
2023-01-15T22:45:01.022Z,5.05
2023-01-15T22:47:29.529Z,5.09
2023-01-15T22:49:56.366Z,5.13
2023-01-15T22:52:25.325Z,5.17
2023-01-15T22:54:52.309Z,5.17
2023-01-15T22:57:19.818Z,5.20
2023-01-15T22:59:46.661Z,5.21
2023-01-15T23:02:13.674Z,5.22
2023-01-15T23:04:40.511Z,5.13
2023-01-15T23:07:07.217Z,5.13
2023-01-15T23:09:35.937Z,5.09
2023-01-15T23:12:02.720Z,5.07
2023-01-15T23:14:29.479Z,5.10
2023-01-15T23:16:56.195Z,5.01
2023-01-15T23:19:24.848Z,5.05
2023-01-15T23:21:51.511Z,4.98
2023-01-15T23:24:18.305Z,4.99
2023-01-15T23:26:44.959Z,4.93
2023-01-15T23:29:11.681Z,4.90
2023-01-15T23:31:38.389Z,4.93
2023-01-15T23:34:05.107Z,5.01
2023-01-15T23:36:31.790Z,5.04
2023-01-15T23:38:58.527Z,5.14
2023-01-15T23:41:44.293Z,5.14
2023-01-15T23:44:35.340Z,5.27
2023-01-15T23:47:02.458Z,5.20
2023-01-15T23:49:29.209Z,5.14
2023-01-15T23:51:56.107Z,5.13
2023-01-15T23:54:25.377Z,5.15
2023-01-15T23:56:52.067Z,5.14
2023-01-15T23:59:18.845Z,5.14
